sensor_id;sensor_type;location;lat;lon;timestamp;temperature;humidity
53675;DHT22;39574;50.534;8.500;2022-12-26T00:02:06;11.4;99.9
53675;DHT22;39574;50.534;8.500;2022-12-26T00:11:41;11.4;99.9
53675;DHT22;39574;50.534;8.500;2022-12-26T00:16:44;11.4;99.9
53675;DHT22;39574;50.534;8.500;2022-12-26T00:21:47;11.4;99.9
53675;DHT22;39574;50.534;8.500;2022-12-26T00:26:58;11.4;99.9
53675;DHT22;39574;50.534;8.500;2022-12-26T00:36:39;11.3;99.9
53675;DHT22;39574;50.534;8.500;2022-12-26T00:41:43;11.3;99.9
53675;DHT22;39574;50.534;8.500;2022-12-26T00:46:54;11.3;99.9
53675;DHT22;39574;50.534;8.500;2022-12-26T00:51:56;11.3;99.9
53675;DHT22;39574;50.534;8.500;2022-12-26T01:01:23;11.3;99.9
53675;DHT22;39574;50.534;8.500;2022-12-26T01:06:36;11.3;99.9
53675;DHT22;39574;50.534;8.500;2022-12-26T01:11:48;11.3;99.9
53675;DHT22;39574;50.534;8.500;2022-12-26T01:16:49;11.3;99.9
53675;DHT22;39574;50.534;8.500;2022-12-26T01:21:50;11.3;99.9
53675;DHT22;39574;50.534;8.500;2022-12-26T01:26:50;11.3;99.9
53675;DHT22;39574;50.534;8.500;2022-12-26T01:36:29;11.3;99.9
53675;DHT22;39574;50.534;8.500;2022-12-26T01:41:41;11.3;99.9
53675;DHT22;39574;50.534;8.500;2022-12-26T01:51:24;11.4;99.9
53675;DHT22;39574;50.534;8.500;2022-12-26T01:56:29;11.4;99.9
53675;DHT22;39574;50.534;8.500;2022-12-26T02:01:41;11.4;99.9
53675;DHT22;39574;50.534;8.500;2022-12-26T02:11:09;11.4;99.9
53675;DHT22;39574;50.534;8.500;2022-12-26T02:16:11;11.4;99.9
53675;DHT22;39574;50.534;8.500;2022-12-26T02:21:27;11.5;99.9
53675;DHT22;39574;50.534;8.500;2022-12-26T02:26:28;11.5;99.9
53675;DHT22;39574;50.534;8.500;2022-12-26T02:31:36;11.5;99.9
53675;DHT22;39574;50.534;8.500;2022-12-26T02:41:07;11.5;99.9
53675;DHT22;39574;50.534;8.500;2022-12-26T02:46:16;11.6;99.9
53675;DHT22;39574;50.534;8.500;2022-12-26T02:51:20;11.6;99.9
53675;DHT22;39574;50.534;8.500;2022-12-26T02:56:29;11.6;99.9
53675;DHT22;39574;50.534;8.500;2022-12-26T03:01:32;11.5;99.9
53675;DHT22;39574;50.534;8.500;2022-12-26T03:10:57;11.6;99.9
53675;DHT22;39574;50.534;8.500;2022-12-26T03:16:12;11.6;99.9
53675;DHT22;39574;50.534;8.500;2022-12-26T03:21:27;11.6;99.9
53675;DHT22;39574;50.534;8.500;2022-12-26T03:31:06;11.5;99.9
53675;DHT22;39574;50.534;8.500;2022-12-26T03:36:06;11.5;99.9
53675;DHT22;39574;50.534;8.500;2022-12-26T03:41:23;11.4;99.9
53675;DHT22;39574;50.534;8.500;2022-12-26T03:46:28;11.4;99.9
53675;DHT22;39574;50.534;8.500;2022-12-26T03:55:32;11.3;99.9
53675;DHT22;39574;50.534;8.500;2022-12-26T04:00:48;11.3;99.9
53675;DHT22;39574;50.534;8.500;2022-12-26T04:06:01;11.3;99.9
53675;DHT22;39574;50.534;8.500;2022-12-26T04:11:02;11.2;99.9
53675;DHT22;39574;50.534;8.500;2022-12-26T04:16:15;11.2;99.9
53675;DHT22;39574;50.534;8.500;2022-12-26T04:21:15;11.3;99.9
53675;DHT22;39574;50.534;8.500;2022-12-26T04:26:16;11.3;99.9
53675;DHT22;39574;50.534;8.500;2022-12-26T04:35:24;11.2;99.9
53675;DHT22;39574;50.534;8.500;2022-12-26T04:40:26;11.2;99.9
53675;DHT22;39574;50.534;8.500;2022-12-26T04:45:38;11.2;99.9
53675;DHT22;39574;50.534;8.500;2022-12-26T04:50:47;11.2;99.9
53675;DHT22;39574;50.534;8.500;2022-12-26T04:55:51;11.4;99.9
53675;DHT22;39574;50.534;8.500;2022-12-26T05:00:51;11.5;99.9
53675;DHT22;39574;50.534;8.500;2022-12-26T05:06:01;11.6;99.9
53675;DHT22;39574;50.534;8.500;2022-12-26T05:15:30;11.6;99.9
53675;DHT22;39574;50.534;8.500;2022-12-26T05:20:45;11.6;99.9
53675;DHT22;39574;50.534;8.500;2022-12-26T05:25:59;11.6;99.9
53675;DHT22;39574;50.534;8.500;2022-12-26T05:35:34;11.6;99.9
53675;DHT22;39574;50.534;8.500;2022-12-26T05:40:35;11.6;99.9
53675;DHT22;39574;50.534;8.500;2022-12-26T05:45:40;11.6;99.9
53675;DHT22;39574;50.534;8.500;2022-12-26T05:50:41;11.6;99.9
53675;DHT22;39574;50.534;8.500;2022-12-26T05:55:42;11.7;99.9
53675;DHT22;39574;50.534;8.500;2022-12-26T06:01:02;11.7;99.9
53675;DHT22;39574;50.534;8.500;2022-12-26T06:05:56;11.7;99.9
53675;DHT22;39574;50.534;8.500;2022-12-26T06:15:21;11.8;99.9
53675;DHT22;39574;50.534;8.500;2022-12-26T06:20:22;11.8;99.9
53675;DHT22;39574;50.534;8.500;2022-12-26T06:25:32;11.8;99.9
53675;DHT22;39574;50.534;8.500;2022-12-26T06:30:45;11.8;99.9
53675;DHT22;39574;50.534;8.500;2022-12-26T06:35:47;11.8;99.9
53675;DHT22;39574;50.534;8.500;2022-12-26T06:45:06;11.8;99.9
53675;DHT22;39574;50.534;8.500;2022-12-26T06:50:26;11.8;99.9
53675;DHT22;39574;50.534;8.500;2022-12-26T06:55:40;11.6;99.9
53675;DHT22;39574;50.534;8.500;2022-12-26T07:00:43;11.6;99.9
53675;DHT22;39574;50.534;8.500;2022-12-26T07:10:09;11.4;99.9
53675;DHT22;39574;50.534;8.500;2022-12-26T07:15:11;11.3;99.9
53675;DHT22;39574;50.534;8.500;2022-12-26T07:20:21;11.3;99.9
53675;DHT22;39574;50.534;8.500;2022-12-26T07:25:35;11.2;99.9
53675;DHT22;39574;50.534;8.500;2022-12-26T07:35:08;11.2;99.9
53675;DHT22;39574;50.534;8.500;2022-12-26T07:40:17;11.1;99.9
53675;DHT22;39574;50.534;8.500;2022-12-26T07:45:22;11.1;99.9
53675;DHT22;39574;50.534;8.500;2022-12-26T07:50:34;11.1;99.9
53675;DHT22;39574;50.534;8.500;2022-12-26T08:00:15;11.0;99.9
53675;DHT22;39574;50.534;8.500;2022-12-26T08:05:28;10.9;99.9
53675;DHT22;39574;50.534;8.500;2022-12-26T08:14:58;10.8;99.9
53675;DHT22;39574;50.534;8.500;2022-12-26T08:20:12;10.6;99.9
53675;DHT22;39574;50.534;8.500;2022-12-26T08:25:22;10.6;99.9
53675;DHT22;39574;50.534;8.500;2022-12-26T08:30:24;10.5;99.9
53675;DHT22;39574;50.534;8.500;2022-12-26T08:35:26;10.5;99.9
53675;DHT22;39574;50.534;8.500;2022-12-26T08:44:37;10.5;99.9
53675;DHT22;39574;50.534;8.500;2022-12-26T08:49:38;10.5;99.9
53675;DHT22;39574;50.534;8.500;2022-12-26T08:55:03;10.4;99.9
53675;DHT22;39574;50.534;8.500;2022-12-26T09:00:06;10.4;99.9
53675;DHT22;39574;50.534;8.500;2022-12-26T09:05:20;10.4;99.9
53675;DHT22;39574;50.534;8.500;2022-12-26T09:14:46;10.4;99.9
53675;DHT22;39574;50.534;8.500;2022-12-26T09:19:56;10.4;99.9
53675;DHT22;39574;50.534;8.500;2022-12-26T09:24:59;10.4;99.9
53675;DHT22;39574;50.534;8.500;2022-12-26T09:30:11;10.4;99.9
53675;DHT22;39574;50.534;8.500;2022-12-26T09:39:39;10.4;99.9
53675;DHT22;39574;50.534;8.500;2022-12-26T09:44:44;10.5;99.9
53675;DHT22;39574;50.534;8.500;2022-12-26T09:49:44;10.5;99.9
53675;DHT22;39574;50.534;8.500;2022-12-26T09:54:52;10.6;99.9
53675;DHT22;39574;50.534;8.500;2022-12-26T09:59:54;10.7;99.9
53675;DHT22;39574;50.534;8.500;2022-12-26T10:05:11;10.8;99.9
53675;DHT22;39574;50.534;8.500;2022-12-26T10:14:37;10.9;99.9
53675;DHT22;39574;50.534;8.500;2022-12-26T10:19:40;11.0;99.9
53675;DHT22;39574;50.534;8.500;2022-12-26T10:24:47;11.1;99.9
53675;DHT22;39574;50.534;8.500;2022-12-26T10:29:49;11.2;99.9
53675;DHT22;39574;50.534;8.500;2022-12-26T10:34:56;11.2;99.9
53675;DHT22;39574;50.534;8.500;2022-12-26T10:40:00;11.4;99.9
53675;DHT22;39574;50.534;8.500;2022-12-26T10:49:15;11.4;99.9
53675;DHT22;39574;50.534;8.500;2022-12-26T10:54:27;11.5;99.9
53675;DHT22;39574;50.534;8.500;2022-12-26T10:59:41;11.5;99.9
53675;DHT22;39574;50.534;8.500;2022-12-26T11:04:56;11.6;99.9
53675;DHT22;39574;50.534;8.500;2022-12-26T11:09:54;11.6;99.9
53675;DHT22;39574;50.534;8.500;2022-12-26T11:19:24;11.7;99.9
53675;DHT22;39574;50.534;8.500;2022-12-26T11:24:31;11.7;99.9
53675;DHT22;39574;50.534;8.500;2022-12-26T11:34:06;11.6;99.9
53675;DHT22;39574;50.534;8.500;2022-12-26T11:39:18;11.6;99.9
53675;DHT22;39574;50.534;8.500;2022-12-26T11:44:18;11.6;99.9
53675;DHT22;39574;50.534;8.500;2022-12-26T11:49:29;11.6;99.9
53675;DHT22;39574;50.534;8.500;2022-12-26T11:54:32;11.7;99.9
53675;DHT22;39574;50.534;8.500;2022-12-26T11:59:33;11.7;99.9
53675;DHT22;39574;50.534;8.500;2022-12-26T12:04:43;11.8;99.9
53675;DHT22;39574;50.534;8.500;2022-12-26T12:14:36;11.8;99.9
53675;DHT22;39574;50.534;8.500;2022-12-26T12:19:43;11.8;99.9
53675;DHT22;39574;50.534;8.500;2022-12-26T12:24:48;11.8;99.9
53675;DHT22;39574;50.534;8.500;2022-12-26T12:33:53;11.7;99.9
53675;DHT22;39574;50.534;8.500;2022-12-26T12:38:56;11.7;99.9
53675;DHT22;39574;50.534;8.500;2022-12-26T12:44:06;11.6;99.9
53675;DHT22;39574;50.534;8.500;2022-12-26T12:49:12;11.5;99.9
53675;DHT22;39574;50.534;8.500;2022-12-26T12:54:23;11.3;99.9
53675;DHT22;39574;50.534;8.500;2022-12-26T12:59:35;11.1;99.9
53675;DHT22;39574;50.534;8.500;2022-12-26T13:09:02;11.1;99.9
53675;DHT22;39574;50.534;8.500;2022-12-26T13:14:13;11.1;99.9
53675;DHT22;39574;50.534;8.500;2022-12-26T13:19:16;11.1;99.9
53675;DHT22;39574;50.534;8.500;2022-12-26T13:24:18;11.2;99.9
53675;DHT22;39574;50.534;8.500;2022-12-26T13:29:33;11.2;99.9
53675;DHT22;39574;50.534;8.500;2022-12-26T13:39:33;11.2;99.9
53675;DHT22;39574;50.534;8.500;2022-12-26T13:44:24;11.2;99.9
53675;DHT22;39574;50.534;8.500;2022-12-26T13:49:29;11.2;99.9
53675;DHT22;39574;50.534;8.500;2022-12-26T13:54:22;11.2;99.9
53675;DHT22;39574;50.534;8.500;2022-12-26T13:59:22;11.1;99.9
53675;DHT22;39574;50.534;8.500;2022-12-26T14:04:30;11.1;99.9
53675;DHT22;39574;50.534;8.500;2022-12-26T14:13:49;10.3;99.9
53675;DHT22;39574;50.534;8.500;2022-12-26T14:18:50;9.7;99.9
53675;DHT22;39574;50.534;8.500;2022-12-26T14:23:51;9.1;99.9
53675;DHT22;39574;50.534;8.500;2022-12-26T14:33:44;8.9;99.9
53675;DHT22;39574;50.534;8.500;2022-12-26T14:38:59;9.0;99.9
53675;DHT22;39574;50.534;8.500;2022-12-26T14:44:11;9.1;99.9
53675;DHT22;39574;50.534;8.500;2022-12-26T14:49:16;9.2;99.9
53675;DHT22;39574;50.534;8.500;2022-12-26T14:54:17;9.3;99.9
53675;DHT22;39574;50.534;8.500;2022-12-26T15:03:52;9.3;99.9
53675;DHT22;39574;50.534;8.500;2022-12-26T15:09:01;9.3;99.9
53675;DHT22;39574;50.534;8.500;2022-12-26T15:14:42;9.3;99.9
53675;DHT22;39574;50.534;8.500;2022-12-26T15:23:43;9.4;99.9
53675;DHT22;39574;50.534;8.500;2022-12-26T15:29:00;9.5;99.9
53675;DHT22;39574;50.534;8.500;2022-12-26T15:33:54;9.6;99.9
53675;DHT22;39574;50.534;8.500;2022-12-26T15:39:11;9.6;99.9
53675;DHT22;39574;50.534;8.500;2022-12-26T15:48:35;9.6;99.9
53675;DHT22;39574;50.534;8.500;2022-12-26T15:53:46;9.5;99.9
53675;DHT22;39574;50.534;8.500;2022-12-26T15:58:49;9.5;99.9
53675;DHT22;39574;50.534;8.500;2022-12-26T16:03:48;9.5;99.9
53675;DHT22;39574;50.534;8.500;2022-12-26T16:09:07;9.2;99.9
53675;DHT22;39574;50.534;8.500;2022-12-26T16:13:59;8.7;99.9
53675;DHT22;39574;50.534;8.500;2022-12-26T16:23:25;8.1;99.9
53675;DHT22;39574;50.534;8.500;2022-12-26T16:28:30;7.8;99.9
53675;DHT22;39574;50.534;8.500;2022-12-26T16:33:33;7.7;99.9
53675;DHT22;39574;50.534;8.500;2022-12-26T16:38:36;7.8;99.9
53675;DHT22;39574;50.534;8.500;2022-12-26T16:43:36;7.9;99.9
53675;DHT22;39574;50.534;8.500;2022-12-26T16:48:52;8.0;99.9
53675;DHT22;39574;50.534;8.500;2022-12-26T16:58:21;8.0;99.9
53675;DHT22;39574;50.534;8.500;2022-12-26T17:03:33;8.0;99.9
53675;DHT22;39574;50.534;8.500;2022-12-26T17:08:30;8.0;99.9
53675;DHT22;39574;50.534;8.500;2022-12-26T17:13:46;8.0;99.9
53675;DHT22;39574;50.534;8.500;2022-12-26T17:18:46;7.9;99.9
53675;DHT22;39574;50.534;8.500;2022-12-26T17:28:28;7.9;99.9
53675;DHT22;39574;50.534;8.500;2022-12-26T17:33:43;7.9;99.9
53675;DHT22;39574;50.534;8.500;2022-12-26T17:43:19;7.9;99.9
53675;DHT22;39574;50.534;8.500;2022-12-26T17:48:12;7.9;99.9
53675;DHT22;39574;50.534;8.500;2022-12-26T17:53:21;7.9;99.9
53675;DHT22;39574;50.534;8.500;2022-12-26T17:58:20;7.8;99.9
53675;DHT22;39574;50.534;8.500;2022-12-26T18:03:33;7.8;99.9
53675;DHT22;39574;50.534;8.500;2022-12-26T18:08:35;7.9;99.9
53675;DHT22;39574;50.534;8.500;2022-12-26T18:18:23;7.8;99.9
53675;DHT22;39574;50.534;8.500;2022-12-26T18:23:28;7.9;99.9
53675;DHT22;39574;50.534;8.500;2022-12-26T18:28:29;7.8;99.9
53675;DHT22;39574;50.534;8.500;2022-12-26T18:37:56;7.6;99.9
53675;DHT22;39574;50.534;8.500;2022-12-26T18:42:56;7.6;99.9
53675;DHT22;39574;50.534;8.500;2022-12-26T18:48:09;7.5;99.9
53675;DHT22;39574;50.534;8.500;2022-12-26T18:53:08;7.5;99.9
53675;DHT22;39574;50.534;8.500;2022-12-26T18:58:12;7.5;99.9
53675;DHT22;39574;50.534;8.500;2022-12-26T19:03:17;7.4;99.9
53675;DHT22;39574;50.534;8.500;2022-12-26T19:08:18;7.3;99.9
53675;DHT22;39574;50.534;8.500;2022-12-26T19:13:21;7.1;99.9
53675;DHT22;39574;50.534;8.500;2022-12-26T19:22:55;7.0;99.9
53675;DHT22;39574;50.534;8.500;2022-12-26T19:27:56;6.9;99.9
53675;DHT22;39574;50.534;8.500;2022-12-26T19:32:59;6.8;99.9
53675;DHT22;39574;50.534;8.500;2022-12-26T19:37:59;6.8;99.9
53675;DHT22;39574;50.534;8.500;2022-12-26T19:43:10;6.7;99.9
53675;DHT22;39574;50.534;8.500;2022-12-26T19:48:11;6.6;99.9
53675;DHT22;39574;50.534;8.500;2022-12-26T19:53:13;6.6;99.9
53675;DHT22;39574;50.534;8.500;2022-12-26T20:02:38;6.5;99.9
53675;DHT22;39574;50.534;8.500;2022-12-26T20:07:47;6.3;99.9
53675;DHT22;39574;50.534;8.500;2022-12-26T20:13:01;6.3;99.9
53675;DHT22;39574;50.534;8.500;2022-12-26T20:18:05;6.2;99.9
53675;DHT22;39574;50.534;8.500;2022-12-26T20:27:11;6.1;99.9
53675;DHT22;39574;50.534;8.500;2022-12-26T20:32:31;5.9;99.9
53675;DHT22;39574;50.534;8.500;2022-12-26T20:37:43;5.7;99.9
53675;DHT22;39574;50.534;8.500;2022-12-26T20:42:45;5.5;99.9
53675;DHT22;39574;50.534;8.500;2022-12-26T20:47:58;5.4;99.9
53675;DHT22;39574;50.534;8.500;2022-12-26T20:57:25;5.2;99.9
53675;DHT22;39574;50.534;8.500;2022-12-26T21:02:36;5.1;99.9
53675;DHT22;39574;50.534;8.500;2022-12-26T21:07:38;5.0;99.9
53675;DHT22;39574;50.534;8.500;2022-12-26T21:12:49;4.8;99.9
53675;DHT22;39574;50.534;8.500;2022-12-26T21:22:02;4.7;99.9
53675;DHT22;39574;50.534;8.500;2022-12-26T21:27:33;4.6;99.9
53675;DHT22;39574;50.534;8.500;2022-12-26T21:32:34;4.6;99.9
53675;DHT22;39574;50.534;8.500;2022-12-26T21:37:45;4.5;99.9
53675;DHT22;39574;50.534;8.500;2022-12-26T21:46:54;4.5;99.9
53675;DHT22;39574;50.534;8.500;2022-12-26T21:52:06;4.4;99.9
53675;DHT22;39574;50.534;8.500;2022-12-26T21:57:08;4.4;99.9
53675;DHT22;39574;50.534;8.500;2022-12-26T22:02:22;4.3;99.9
53675;DHT22;39574;50.534;8.500;2022-12-26T22:07:26;4.4;99.9
53675;DHT22;39574;50.534;8.500;2022-12-26T22:12:38;4.3;99.9
53675;DHT22;39574;50.534;8.500;2022-12-26T22:22:16;4.4;99.9
53675;DHT22;39574;50.534;8.500;2022-12-26T22:27:22;4.4;99.9
53675;DHT22;39574;50.534;8.500;2022-12-26T22:32:35;4.4;99.9
53675;DHT22;39574;50.534;8.500;2022-12-26T22:41:59;4.5;99.9
53675;DHT22;39574;50.534;8.500;2022-12-26T22:47:11;4.5;99.9
53675;DHT22;39574;50.534;8.500;2022-12-26T22:52:13;4.5;99.9
53675;DHT22;39574;50.534;8.500;2022-12-26T22:57:24;4.5;99.9
53675;DHT22;39574;50.534;8.500;2022-12-26T23:02:25;4.5;99.9
53675;DHT22;39574;50.534;8.500;2022-12-26T23:12:04;4.5;99.9
53675;DHT22;39574;50.534;8.500;2022-12-26T23:17:18;4.4;99.9
53675;DHT22;39574;50.534;8.500;2022-12-26T23:26:29;4.4;99.9
53675;DHT22;39574;50.534;8.500;2022-12-26T23:31:53;4.3;99.9
53675;DHT22;39574;50.534;8.500;2022-12-26T23:36:59;4.3;99.9
53675;DHT22;39574;50.534;8.500;2022-12-26T23:42:04;4.2;99.9
53675;DHT22;39574;50.534;8.500;2022-12-26T23:47:17;4.3;99.9
53675;DHT22;39574;50.534;8.500;2022-12-26T23:56:41;4.2;99.9
